Chiayi Airport


Codes: RCKU/CYI
Name: Chiayi Airport
City: Chiayi City
Country: Taiwan
Elevation: 85 ft.
Website:
Wikipedia:

Photos at Chiayi Airport


   Photos courtesy of SpottingLog. You can add your own sightings and photos by signing up for a free trial today.



No photos found.

Weather at Chiayi Airport


Time (UTC)DescriptionTempratureWindCloud coverageVisibilityPressureHumidity
15-Apr-2024 18:00Broken Clouds27°C4 mph, W77%10000m1013hPa66%
15-Apr-2024 21:00Light Rain26°C0 mph, W30%10000m1012hPa72%
16-Apr-2024 00:00Light Rain28°C4 mph, SW2%10000m1013hPa62%
16-Apr-2024 03:00Clear Sky33°C11 mph, W0%10000m1012hPa41%
16-Apr-2024 06:00Clear Sky32°C13 mph, W1%10000m1010hPa45%
16-Apr-2024 09:00Clear Sky30°C9 mph, W2%10000m1010hPa51%
16-Apr-2024 12:00Clear Sky28°C2 mph, NW3%10000m1011hPa58%
16-Apr-2024 15:00Clear Sky28°C0 mph, SW0%10000m1011hPa60%
16-Apr-2024 18:00Clear Sky26°C2 mph, NW0%10000m1011hPa67%
16-Apr-2024 21:00Clear Sky25°C2 mph, SW2%10000m1010hPa70%
17-Apr-2024 00:00Few Clouds28°C4 mph, SW18%10000m1012hPa60%
17-Apr-2024 03:00Few Clouds33°C11 mph, SW13%10000m1011hPa37%
17-Apr-2024 06:00Clear Sky33°C11 mph, W10%10000m1009hPa40%
17-Apr-2024 09:00Clear Sky30°C9 mph, W6%10000m1009hPa48%
17-Apr-2024 12:00Clear Sky28°C2 mph, SW7%10000m1010hPa59%
17-Apr-2024 15:00Few Clouds28°C2 mph, SW11%10000m1010hPa57%
17-Apr-2024 18:00Clear Sky26°C2 mph, W9%10000m1009hPa64%
17-Apr-2024 21:00Few Clouds26°C0 mph, E18%10000m1009hPa68%
18-Apr-2024 00:00Few Clouds28°C4 mph, NW14%10000m1011hPa58%
18-Apr-2024 03:00Scattered Clouds32°C9 mph, W29%10000m1010hPa40%
18-Apr-2024 06:00Few Clouds33°C13 mph, NW16%10000m1008hPa40%
18-Apr-2024 09:00Light Rain31°C9 mph, NW17%10000m1008hPa45%
18-Apr-2024 12:00Light Rain27°C7 mph, N58%10000m1010hPa62%
18-Apr-2024 15:00Light Rain25°C9 mph, N100%10000m1011hPa71%
18-Apr-2024 18:00Overcast Clouds25°C2 mph, N100%10000m1009hPa71%
18-Apr-2024 21:00Overcast Clouds25°C4 mph, NW99%10000m1010hPa74%
19-Apr-2024 00:00Overcast Clouds27°C2 mph, N97%10000m1012hPa66%
19-Apr-2024 03:00Overcast Clouds30°C7 mph, W89%10000m1010hPa51%
19-Apr-2024 06:00Scattered Clouds33°C13 mph, W47%10000m1008hPa43%
19-Apr-2024 09:00Overcast Clouds29°C7 mph, W93%10000m1009hPa59%
19-Apr-2024 12:00Broken Clouds28°C2 mph, W78%10000m1009hPa63%
19-Apr-2024 15:00Overcast Clouds27°C4 mph, S88%10000m1010hPa67%
19-Apr-2024 18:00Scattered Clouds26°C4 mph, SW42%10000m1010hPa70%
19-Apr-2024 21:00Scattered Clouds26°C4 mph, S48%10000m1009hPa69%
20-Apr-2024 00:00Broken Clouds28°C7 mph, S74%10000m1010hPa57%
20-Apr-2024 03:00Overcast Clouds33°C11 mph, W100%10000m1010hPa40%
20-Apr-2024 06:00Broken Clouds34°C16 mph, W70%10000m1009hPa38%
20-Apr-2024 09:00Clear Sky31°C9 mph, W9%10000m1009hPa46%
20-Apr-2024 12:00Few Clouds29°C4 mph, SW15%10000m1010hPa55%
20-Apr-2024 15:00Overcast Clouds28°C2 mph, SW100%10000m1012hPa59%